createdAt,value
2018-11-02T00:00:08.524Z,8.88888888889
2018-11-02T00:00:22.542Z,8.94444444444
2018-11-02T00:00:35.727Z,8.88888888889
2018-11-02T00:00:47.969Z,8.88888888889
2018-11-02T00:01:00.271Z,8.88888888889
2018-11-02T00:01:13.478Z,8.88888888889
2018-11-02T00:01:25.700Z,8.94444444444
2018-11-02T00:01:37.983Z,8.94444444444
2018-11-02T00:01:50.237Z,8.88888888889
2018-11-02T00:02:02.485Z,8.88888888889
2018-11-02T00:02:15.690Z,8.88888888889
2018-11-02T00:02:27.913Z,8.88888888889
2018-11-02T00:02:40.126Z,8.88888888889
2018-11-02T00:02:52.366Z,8.88888888889
2018-11-02T00:03:04.578Z,8.88888888889
2018-11-02T00:03:17.661Z,8.88888888889
2018-11-02T00:03:29.939Z,8.88888888889
2018-11-02T00:03:42.176Z,8.88888888889
2018-11-02T00:03:54.420Z,8.88888888889
2018-11-02T00:04:06.706Z,8.88888888889
2018-11-02T00:04:18.936Z,8.83333333333
2018-11-02T00:04:32.478Z,8.88888888889
2018-11-02T00:04:44.716Z,8.88888888889
2018-11-02T00:04:56.944Z,8.88888888889
2018-11-02T00:05:09.821Z,8.88888888889
2018-11-02T00:05:22.045Z,8.88888888889
2018-11-02T00:05:35.002Z,8.88888888889
2018-11-02T00:05:47.343Z,8.88888888889
2018-11-02T00:05:59.676Z,8.88888888889
2018-11-02T00:06:12.955Z,8.88888888889
2018-11-02T00:06:27.013Z,8.88888888889
2018-11-02T00:06:40.843Z,8.88888888889
2018-11-02T00:06:53.067Z,8.88888888889
2018-11-02T00:07:05.329Z,8.83333333333
2018-11-02T00:07:17.625Z,8.83333333333
2018-11-02T00:07:30.035Z,8.88888888889
2018-11-02T00:07:43.148Z,8.88888888889
2018-11-02T00:07:55.457Z,8.88888888889
2018-11-02T00:08:07.674Z,8.88888888889
2018-11-02T00:08:19.889Z,8.94444444444
2018-11-02T00:08:32.133Z,8.88888888889
2018-11-02T00:08:44.359Z,8.88888888889
2018-11-02T00:08:57.556Z,8.88888888889
2018-11-02T00:09:09.786Z,8.88888888889
2018-11-02T00:09:21.996Z,8.88888888889
2018-11-02T00:09:34.209Z,8.88888888889
2018-11-02T00:09:46.469Z,8.88888888889
2018-11-02T00:09:59.705Z,8.83333333333
2018-11-02T00:10:11.948Z,8.88888888889
2018-11-02T00:10:24.196Z,8.88888888889
2018-11-02T00:10:36.463Z,8.88888888889
2018-11-02T00:10:48.691Z,8.83333333333
2018-11-02T00:11:01.278Z,8.88888888889
2018-11-02T00:11:13.853Z,8.88888888889
2018-11-02T00:11:26.211Z,8.88888888889
2018-11-02T00:11:38.478Z,8.88888888889
2018-11-02T00:11:50.730Z,8.83333333333
2018-11-02T00:12:03.057Z,8.83333333333
2018-11-02T00:12:17.208Z,8.88888888889
2018-11-02T00:12:31.588Z,8.88888888889
2018-11-02T00:12:44.269Z,8.83333333333
2018-11-02T00:12:56.476Z,8.83333333333
2018-11-02T00:13:08.755Z,8.83333333333
2018-11-02T00:13:21.806Z,8.83333333333
2018-11-02T00:13:34.043Z,8.83333333333
2018-11-02T00:13:46.276Z,8.83333333333
2018-11-02T00:13:58.515Z,8.83333333333
2018-11-02T00:14:10.780Z,8.83333333333
2018-11-02T00:14:23.850Z,8.83333333333
2018-11-02T00:14:36.077Z,8.83333333333
2018-11-02T00:14:48.315Z,8.83333333333
2018-11-02T00:15:00.615Z,8.83333333333
2018-11-02T00:15:13.166Z,8.83333333333
2018-11-02T00:15:25.709Z,8.83333333333
2018-11-02T00:15:38.651Z,8.83333333333
2018-11-02T00:15:50.868Z,8.83333333333
2018-11-02T00:16:03.190Z,8.83333333333
2018-11-02T00:16:15.452Z,8.83333333333
2018-11-02T00:16:27.893Z,8.83333333333
2018-11-02T00:16:41.027Z,8.83333333333
2018-11-02T00:16:53.276Z,8.83333333333
2018-11-02T00:17:05.537Z,8.83333333333
2018-11-02T00:17:17.859Z,8.77777777778
2018-11-02T00:17:30.104Z,8.83333333333
2018-11-02T00:17:43.124Z,8.83333333333
2018-11-02T00:17:55.345Z,8.83333333333
2018-11-02T00:18:07.592Z,8.83333333333
2018-11-02T00:18:19.807Z,8.83333333333
2018-11-02T00:18:32.017Z,8.83333333333
2018-11-02T00:18:44.235Z,8.83333333333
2018-11-02T00:18:57.076Z,8.83333333333
2018-11-02T00:19:09.270Z,8.83333333333
2018-11-02T00:19:21.525Z,8.83333333333
2018-11-02T00:19:33.737Z,8.83333333333
2018-11-02T00:19:46.042Z,8.83333333333
2018-11-02T00:19:59.087Z,8.83333333333
2018-11-02T00:20:11.536Z,8.83333333333
2018-11-02T00:20:23.791Z,8.77777777778
2018-11-02T00:20:36.022Z,8.77777777778
2018-11-02T00:20:48.339Z,8.77777777778
2018-11-02T00:21:01.374Z,8.77777777778
2018-11-02T00:21:13.686Z,8.83333333333
2018-11-02T00:21:25.945Z,8.83333333333
2018-11-02T00:21:38.160Z,8.83333333333
2018-11-02T00:21:50.411Z,8.77777777778
2018-11-02T00:22:02.649Z,8.83333333333
2018-11-02T00:22:15.827Z,8.77777777778
2018-11-02T00:22:28.071Z,8.77777777778
2018-11-02T00:22:40.489Z,8.83333333333
2018-11-02T00:22:52.688Z,8.77777777778
2018-11-02T00:23:05.401Z,8.77777777778
2018-11-02T00:23:18.507Z,8.77777777778
2018-11-02T00:23:30.732Z,8.77777777778
2018-11-02T00:23:43.000Z,8.77777777778
2018-11-02T00:23:55.265Z,8.77777777778
2018-11-02T00:24:07.491Z,8.77777777778
2018-11-02T00:24:20.302Z,8.77777777778
2018-11-02T00:24:32.777Z,8.77777777778
2018-11-02T00:24:45.005Z,8.77777777778
2018-11-02T00:24:57.379Z,8.77777777778
2018-11-02T00:25:09.737Z,8.77777777778
2018-11-02T00:25:21.949Z,8.77777777778
2018-11-02T00:25:34.876Z,8.77777777778
2018-11-02T00:25:47.150Z,8.77777777778
2018-11-02T00:25:59.409Z,8.77777777778
2018-11-02T00:26:11.644Z,8.77777777778
2018-11-02T00:26:23.901Z,8.77777777778
2018-11-02T00:26:36.951Z,8.77777777778
2018-11-02T00:26:49.212Z,8.83333333333
2018-11-02T00:27:01.429Z,8.77777777778
2018-11-02T00:27:13.636Z,8.77777777778
2018-11-02T00:27:26.023Z,8.77777777778
2018-11-02T00:27:38.701Z,8.77777777778
2018-11-02T00:27:51.172Z,8.77777777778
2018-11-02T00:28:03.407Z,8.77777777778
2018-11-02T00:28:15.619Z,8.77777777778
2018-11-02T00:28:27.850Z,8.77777777778
2018-11-02T00:28:40.133Z,8.77777777778
2018-11-02T00:28:53.339Z,8.77777777778
2018-11-02T00:29:05.728Z,8.77777777778
2018-11-02T00:29:18.043Z,8.72222222222
2018-11-02T00:29:30.326Z,8.77777777778
2018-11-02T00:29:42.594Z,8.72222222222
2018-11-02T00:29:55.701Z,8.72222222222
2018-11-02T00:30:07.953Z,8.72222222222
2018-11-02T00:30:20.200Z,8.72222222222
2018-11-02T00:30:32.486Z,8.77777777778
2018-11-02T00:30:44.743Z,8.77777777778
2018-11-02T00:30:57.581Z,8.72222222222
2018-11-02T00:31:10.149Z,8.72222222222
2018-11-02T00:31:22.931Z,8.72222222222
2018-11-02T00:31:35.187Z,8.72222222222
2018-11-02T00:31:48.137Z,8.72222222222
2018-11-02T00:32:02.241Z,8.72222222222
2018-11-02T00:32:16.065Z,8.72222222222
2018-11-02T00:32:28.391Z,8.72222222222
2018-11-02T00:32:40.618Z,8.72222222222
2018-11-02T00:32:52.870Z,8.72222222222
2018-11-02T00:33:05.085Z,8.66666666667
2018-11-02T00:33:17.968Z,8.72222222222
2018-11-02T00:33:30.234Z,8.72222222222
2018-11-02T00:33:42.442Z,8.72222222222
2018-11-02T00:33:54.674Z,8.72222222222
2018-11-02T00:34:06.910Z,8.66666666667
2018-11-02T00:34:20.180Z,8.66666666667
2018-11-02T00:34:32.402Z,8.66666666667
2018-11-02T00:34:44.654Z,8.66666666667
2018-11-02T00:34:56.863Z,8.72222222222
2018-11-02T00:35:09.103Z,8.66666666667
2018-11-02T00:35:21.321Z,8.66666666667
2018-11-02T00:35:34.297Z,8.66666666667
2018-11-02T00:35:46.629Z,8.66666666667
2018-11-02T00:35:58.895Z,8.66666666667
2018-11-02T00:36:11.199Z,8.66666666667
2018-11-02T00:36:23.480Z,8.66666666667
2018-11-02T00:36:36.495Z,8.66666666667
2018-11-02T00:36:48.746Z,8.66666666667
2018-11-02T00:37:01.026Z,8.66666666667
2018-11-02T00:37:13.255Z,8.66666666667
2018-11-02T00:37:25.772Z,8.66666666667
2018-11-02T00:37:38.857Z,8.66666666667
2018-11-02T00:37:51.105Z,8.66666666667
2018-11-02T00:38:03.337Z,8.66666666667
2018-11-02T00:38:15.570Z,8.66666666667
2018-11-02T00:38:27.821Z,8.66666666667
2018-11-02T00:38:40.037Z,8.66666666667
2018-11-02T00:38:53.138Z,8.61111111111
2018-11-02T00:39:05.371Z,8.61111111111
2018-11-02T00:39:17.612Z,8.66666666667
2018-11-02T00:39:29.992Z,8.61111111111
2018-11-02T00:39:42.235Z,8.66666666667
2018-11-02T00:39:55.568Z,8.61111111111
2018-11-02T00:40:07.805Z,8.66666666667
2018-11-02T00:40:20.079Z,8.61111111111
2018-11-02T00:40:32.315Z,8.61111111111
2018-11-02T00:40:44.532Z,8.66666666667
2018-11-02T00:40:57.406Z,8.61111111111
2018-11-02T00:41:09.644Z,8.61111111111
2018-11-02T00:41:21.876Z,8.61111111111
2018-11-02T00:41:34.124Z,8.61111111111
2018-11-02T00:41:46.335Z,8.61111111111
2018-11-02T00:41:58.648Z,8.61111111111
2018-11-02T00:42:11.812Z,8.61111111111
2018-11-02T00:42:24.076Z,8.61111111111
2018-11-02T00:42:36.319Z,8.61111111111
2018-11-02T00:42:48.532Z,8.61111111111
2018-11-02T00:43:00.845Z,8.61111111111
2018-11-02T00:43:14.010Z,8.61111111111
2018-11-02T00:43:26.335Z,8.61111111111
2018-11-02T00:43:38.566Z,8.61111111111
2018-11-02T00:43:51.255Z,8.55555555556
2018-11-02T00:44:05.023Z,8.55555555556
2018-11-02T00:44:20.846Z,8.55555555556
2018-11-02T00:44:33.105Z,8.61111111111
2018-11-02T00:44:45.343Z,8.55555555556
2018-11-02T00:44:57.608Z,8.55555555556
2018-11-02T00:45:09.864Z,8.55555555556
2018-11-02T00:45:22.820Z,8.55555555556
2018-11-02T00:45:35.115Z,8.55555555556
2018-11-02T00:45:47.354Z,8.55555555556
2018-11-02T00:45:59.620Z,8.55555555556
2018-11-02T00:46:12.014Z,8.55555555556
2018-11-02T00:46:24.224Z,8.55555555556
2018-11-02T00:46:37.356Z,8.55555555556
2018-11-02T00:46:49.583Z,8.55555555556
2018-11-02T00:47:01.838Z,8.55555555556
2018-11-02T00:47:14.074Z,8.55555555556
2018-11-02T00:47:26.300Z,8.55555555556
2018-11-02T00:47:39.662Z,8.55555555556
2018-11-02T00:47:51.861Z,8.55555555556
2018-11-02T00:48:04.126Z,8.55555555556
2018-11-02T00:48:16.355Z,8.55555555556
2018-11-02T00:48:28.640Z,8.55555555556
2018-11-02T00:48:41.688Z,8.55555555556
2018-11-02T00:48:54.008Z,8.55555555556
2018-11-02T00:49:06.246Z,8.55555555556
2018-11-02T00:49:18.468Z,8.5
2018-11-02T00:49:30.705Z,8.55555555556
2018-11-02T00:49:44.431Z,8.5
2018-11-02T00:49:57.311Z,8.55555555556
2018-11-02T00:50:09.545Z,8.5
2018-11-02T00:50:21.784Z,8.5
2018-11-02T00:50:34.004Z,8.5
2018-11-02T00:50:46.311Z,8.5
2018-11-02T00:50:59.431Z,8.5
2018-11-02T00:51:11.748Z,8.5
2018-11-02T00:51:23.969Z,8.5
2018-11-02T00:51:36.194Z,8.5
2018-11-02T00:51:48.404Z,8.5
2018-11-02T00:52:01.611Z,8.5
2018-11-02T00:52:13.830Z,8.5
2018-11-02T00:52:26.035Z,8.5
2018-11-02T00:52:38.255Z,8.44444444444
2018-11-02T00:52:50.630Z,8.5
2018-11-02T00:53:02.841Z,8.5
2018-11-02T00:53:16.373Z,8.5
2018-11-02T00:53:28.620Z,8.5
2018-11-02T00:53:40.892Z,8.5
2018-11-02T00:53:53.205Z,8.5
2018-11-02T00:54:05.433Z,8.44444444444
2018-11-02T00:54:18.689Z,8.44444444444
2018-11-02T00:54:30.905Z,8.44444444444
2018-11-02T00:54:43.189Z,8.5
2018-11-02T00:54:55.578Z,8.5
2018-11-02T00:55:07.972Z,8.44444444444
2018-11-02T00:55:21.108Z,8.44444444444
2018-11-02T00:55:33.387Z,8.44444444444
2018-11-02T00:55:45.642Z,8.44444444444
2018-11-02T00:55:57.914Z,8.44444444444
2018-11-02T00:56:10.273Z,8.44444444444
2018-11-02T00:56:22.501Z,8.44444444444
2018-11-02T00:56:35.468Z,8.44444444444
2018-11-02T00:56:47.659Z,8.44444444444
2018-11-02T00:56:59.872Z,8.38888888889
2018-11-02T00:57:12.116Z,8.44444444444
2018-11-02T00:57:24.377Z,8.44444444444
2018-11-02T00:57:37.255Z,8.44444444444
2018-11-02T00:57:49.559Z,8.44444444444
2018-11-02T00:58:01.797Z,8.44444444444
2018-11-02T00:58:14.237Z,8.44444444444
2018-11-02T00:58:26.565Z,8.44444444444
2018-11-02T00:58:39.753Z,8.38888888889
2018-11-02T00:58:52.040Z,8.44444444444
2018-11-02T00:59:04.337Z,8.44444444444
2018-11-02T00:59:16.553Z,8.44444444444
2018-11-02T00:59:29.006Z,8.38888888889
2018-11-02T00:59:41.252Z,8.38888888889
2018-11-02T00:59:54.552Z,8.38888888889
2018-11-02T01:00:06.864Z,8.38888888889
2018-11-02T01:00:19.119Z,8.38888888889
2018-11-02T01:00:31.847Z,8.38888888889
2018-11-02T01:00:44.140Z,8.38888888889
2018-11-02T01:00:57.470Z,8.38888888889
2018-11-02T01:01:09.705Z,8.38888888889
2018-11-02T01:01:21.925Z,8.33333333333
2018-11-02T01:01:34.160Z,8.38888888889
2018-11-02T01:01:46.403Z,8.38888888889
2018-11-02T01:01:59.368Z,8.38888888889
2018-11-02T01:02:11.876Z,8.33333333333
2018-11-02T01:02:24.122Z,8.38888888889
2018-11-02T01:02:36.395Z,8.33333333333
2018-11-02T01:02:48.625Z,8.33333333333
2018-11-02T01:03:00.847Z,8.33333333333
2018-11-02T01:03:14.304Z,8.33333333333
2018-11-02T01:03:26.596Z,8.33333333333
2018-11-02T01:03:38.953Z,8.33333333333
2018-11-02T01:03:51.198Z,8.33333333333
2018-11-02T01:04:03.477Z,8.33333333333
2018-11-02T01:04:16.768Z,8.27777777778
2018-11-02T01:04:29.003Z,8.33333333333
2018-11-02T01:04:42.128Z,8.33333333333
2018-11-02T01:04:54.824Z,8.27777777778
2018-11-02T01:05:07.052Z,8.27777777778
2018-11-02T01:05:20.101Z,8.27777777778
2018-11-02T01:05:32.412Z,8.27777777778
2018-11-02T01:05:45.485Z,8.27777777778
2018-11-02T01:05:58.010Z,8.27777777778
2018-11-02T01:06:10.241Z,8.27777777778
2018-11-02T01:06:22.500Z,8.27777777778
2018-11-02T01:06:35.874Z,8.27777777778
2018-11-02T01:06:48.109Z,8.22222222222
2018-11-02T01:07:00.343Z,8.22222222222
2018-11-02T01:07:12.581Z,8.22222222222
2018-11-02T01:07:24.803Z,8.22222222222
2018-11-02T01:07:37.976Z,8.22222222222
2018-11-02T01:07:50.201Z,8.22222222222
2018-11-02T01:08:02.473Z,8.22222222222
2018-11-02T01:08:14.684Z,8.22222222222
2018-11-02T01:08:26.953Z,8.22222222222
2018-11-02T01:08:39.950Z,8.16666666667
2018-11-02T01:08:52.360Z,8.16666666667
2018-11-02T01:09:04.602Z,8.16666666667
2018-11-02T01:09:16.930Z,8.16666666667
2018-11-02T01:09:29.203Z,8.16666666667
2018-11-02T01:09:41.459Z,8.16666666667
2018-11-02T01:09:54.362Z,8.16666666667
2018-11-02T01:10:06.599Z,8.16666666667
2018-11-02T01:10:18.834Z,8.16666666667
2018-11-02T01:10:31.045Z,8.11111111111
2018-11-02T01:10:43.361Z,8.16666666667
2018-11-02T01:10:56.561Z,8.11111111111
2018-11-02T01:11:08.833Z,8.11111111111
2018-11-02T01:11:21.092Z,8.16666666667
2018-11-02T01:11:33.312Z,8.16666666667
2018-11-02T01:11:45.501Z,8.16666666667
2018-11-02T01:11:58.148Z,8.11111111111
2018-11-02T01:12:10.916Z,8.11111111111
2018-11-02T01:12:23.140Z,8.11111111111
2018-11-02T01:12:35.572Z,8.11111111111
2018-11-02T01:12:47.786Z,8.11111111111
2018-11-02T01:13:00.009Z,8.11111111111
2018-11-02T01:13:13.127Z,8.11111111111
2018-11-02T01:13:25.362Z,8.11111111111
2018-11-02T01:13:37.630Z,8.16666666667
2018-11-02T01:13:49.814Z,8.11111111111
2018-11-02T01:14:02.039Z,8.11111111111
2018-11-02T01:14:15.085Z,8.05555555556
2018-11-02T01:14:27.409Z,8.11111111111
2018-11-02T01:14:39.672Z,8.11111111111
2018-11-02T01:14:51.898Z,8.05555555556
2018-11-02T01:15:04.333Z,8.11111111111
2018-11-02T01:15:16.770Z,8.11111111111
2018-11-02T01:15:29.783Z,8.11111111111
2018-11-02T01:15:42.038Z,8.05555555556
2018-11-02T01:15:54.222Z,8.11111111111
2018-11-02T01:16:06.431Z,8.11111111111
2018-11-02T01:16:18.637Z,8.05555555556
2018-11-02T01:16:32.743Z,8.11111111111
2018-11-02T01:16:46.277Z,8.05555555556
2018-11-02T01:16:59.564Z,8.05555555556
2018-11-02T01:17:11.771Z,8.05555555556
2018-11-02T01:17:24.151Z,8.05555555556
2018-11-02T01:17:37.092Z,8.05555555556
2018-11-02T01:17:49.349Z,8.05555555556
2018-11-02T01:18:01.802Z,8.05555555556
2018-11-02T01:18:14.049Z,8.05555555556
2018-11-02T01:18:26.267Z,8.11111111111
2018-11-02T01:18:39.055Z,8.05555555556
2018-11-02T01:18:51.536Z,8.05555555556
2018-11-02T01:19:03.775Z,8.05555555556
2018-11-02T01:19:16.085Z,8.05555555556
2018-11-02T01:19:28.312Z,8.05555555556
2018-11-02T01:19:40.571Z,8.05555555556
2018-11-02T01:19:53.537Z,8.05555555556
2018-11-02T01:20:05.780Z,8.05555555556
2018-11-02T01:20:18.028Z,8.05555555556
2018-11-02T01:20:30.249Z,8.05555555556
2018-11-02T01:20:42.449Z,8.05555555556
2018-11-02T01:20:55.561Z,8.05555555556
2018-11-02T01:21:07.925Z,8.05555555556
2018-11-02T01:21:20.173Z,8.05555555556
2018-11-02T01:21:32.385Z,8.05555555556
2018-11-02T01:21:44.642Z,8.05555555556
2018-11-02T01:21:57.632Z,8.05555555556
2018-11-02T01:22:10.437Z,8.05555555556
2018-11-02T01:22:22.686Z,8.05555555556
2018-11-02T01:22:34.995Z,8.05555555556
2018-11-02T01:22:47.376Z,8.05555555556
2018-11-02T01:22:59.637Z,8.11111111111
2018-11-02T01:23:12.702Z,8.05555555556
2018-11-02T01:23:24.910Z,8.05555555556
2018-11-02T01:23:37.157Z,8.05555555556
2018-11-02T01:23:49.401Z,8.05555555556
2018-11-02T01:24:01.642Z,8.05555555556
2018-11-02T01:24:15.675Z,8.05555555556
2018-11-02T01:24:28.135Z,8.05555555556
2018-11-02T01:24:40.404Z,8.05555555556
2018-11-02T01:24:52.638Z,8.05555555556
2018-11-02T01:25:04.943Z,8.05555555556
2018-11-02T01:25:17.876Z,8.05555555556
2018-11-02T01:25:30.229Z,8.05555555556
2018-11-02T01:25:42.447Z,8.05555555556
2018-11-02T01:25:54.777Z,8.05555555556
2018-11-02T01:26:07.034Z,8.05555555556
2018-11-02T01:26:19.345Z,8.05555555556
2018-11-02T01:26:32.369Z,8.05555555556
2018-11-02T01:26:44.576Z,8.05555555556
2018-11-02T01:26:56.796Z,8.05555555556
2018-11-02T01:27:09.038Z,8.05555555556
2018-11-02T01:27:21.260Z,8
2018-11-02T01:27:34.521Z,8.05555555556
2018-11-02T01:27:46.755Z,8.05555555556
2018-11-02T01:27:59.005Z,8
2018-11-02T01:28:11.312Z,8.05555555556
2018-11-02T01:28:23.524Z,8
2018-11-02T01:28:36.016Z,8
2018-11-02T01:28:48.894Z,8.05555555556
2018-11-02T01:29:01.354Z,8
2018-11-02T01:29:13.599Z,8
2018-11-02T01:29:25.818Z,7.94444444444
2018-11-02T01:29:38.102Z,8
2018-11-02T01:29:51.530Z,7.94444444444
2018-11-02T01:30:03.728Z,8
2018-11-02T01:30:15.973Z,7.94444444444
2018-11-02T01:30:28.194Z,7.94444444444
2018-11-02T01:30:40.402Z,8
2018-11-02T01:30:53.569Z,7.94444444444
2018-11-02T01:31:05.885Z,7.94444444444
2018-11-02T01:31:18.121Z,7.94444444444
2018-11-02T01:31:30.348Z,7.94444444444
2018-11-02T01:31:42.600Z,7.94444444444
2018-11-02T01:31:55.100Z,8
2018-11-02T01:32:07.907Z,7.94444444444
2018-11-02T01:32:20.122Z,7.94444444444
2018-11-02T01:32:32.343Z,7.94444444444
2018-11-02T01:32:44.595Z,7.94444444444
2018-11-02T01:32:56.840Z,7.94444444444
2018-11-02T01:33:10.038Z,7.94444444444
2018-11-02T01:33:22.262Z,7.94444444444
2018-11-02T01:33:34.488Z,7.94444444444
2018-11-02T01:33:46.742Z,8
2018-11-02T01:33:59.007Z,7.94444444444
2018-11-02T01:34:12.173Z,8
2018-11-02T01:34:24.417Z,7.94444444444
2018-11-02T01:34:36.648Z,7.94444444444
2018-11-02T01:34:48.859Z,7.94444444444
2018-11-02T01:35:01.069Z,7.94444444444
2018-11-02T01:35:13.339Z,7.94444444444
2018-11-02T01:35:26.364Z,7.94444444444
2018-11-02T01:35:38.724Z,7.94444444444
2018-11-02T01:35:50.972Z,7.94444444444
2018-11-02T01:36:03.280Z,8
2018-11-02T01:36:15.524Z,7.94444444444
2018-11-02T01:36:28.757Z,8
2018-11-02T01:36:41.187Z,8
2018-11-02T01:36:53.393Z,7.94444444444
2018-11-02T01:37:05.668Z,7.94444444444
2018-11-02T01:37:17.927Z,8
2018-11-02T01:37:31.479Z,8
2018-11-02T01:37:43.928Z,8
2018-11-02T01:37:56.163Z,8
2018-11-02T01:38:08.415Z,8
2018-11-02T01:38:20.647Z,8
2018-11-02T01:38:32.891Z,8
2018-11-02T01:38:45.982Z,8
2018-11-02T01:38:58.232Z,8
2018-11-02T01:39:10.442Z,8
2018-11-02T01:39:22.711Z,8
2018-11-02T01:39:35.081Z,8
2018-11-02T01:39:48.094Z,8
2018-11-02T01:40:00.324Z,8
2018-11-02T01:40:12.564Z,8
2018-11-02T01:40:24.964Z,8
2018-11-02T01:40:37.232Z,8
2018-11-02T01:40:50.147Z,8
2018-11-02T01:41:02.552Z,8.05555555556
2018-11-02T01:41:14.814Z,8
2018-11-02T01:41:27.072Z,8
2018-11-02T01:41:39.280Z,8
2018-11-02T01:41:51.517Z,8.05555555556
2018-11-02T01:42:04.757Z,8
2018-11-02T01:42:17.002Z,8.05555555556
2018-11-02T01:42:29.218Z,8
2018-11-02T01:42:41.431Z,8
2018-11-02T01:42:53.655Z,8
2018-11-02T01:43:06.786Z,8.05555555556
2018-11-02T01:43:19.013Z,8
2018-11-02T01:43:31.347Z,8
2018-11-02T01:43:43.579Z,8.05555555556
2018-11-02T01:43:55.854Z,8.05555555556
2018-11-02T01:44:08.739Z,8.05555555556
2018-11-02T01:44:21.218Z,8
2018-11-02T01:44:33.508Z,8.05555555556
2018-11-02T01:44:45.762Z,8
2018-11-02T01:44:57.989Z,8
2018-11-02T01:45:10.305Z,8
2018-11-02T01:45:23.616Z,8.05555555556
2018-11-02T01:45:35.817Z,8.05555555556
2018-11-02T01:45:48.066Z,8.05555555556
2018-11-02T01:46:00.293Z,8.05555555556
2018-11-02T01:46:12.500Z,8.05555555556
2018-11-02T01:46:25.955Z,8.05555555556
2018-11-02T01:46:38.202Z,8.05555555556
2018-11-02T01:46:50.626Z,8.05555555556
2018-11-02T01:47:02.884Z,8.05555555556
2018-11-02T01:47:15.093Z,8.05555555556
2018-11-02T01:47:27.914Z,8.05555555556
2018-11-02T01:47:40.604Z,8.05555555556
2018-11-02T01:47:52.832Z,8.05555555556
2018-11-02T01:48:05.073Z,8.05555555556
2018-11-02T01:48:17.293Z,8.05555555556
2018-11-02T01:48:29.498Z,8.05555555556
2018-11-02T01:48:42.608Z,8.05555555556
2018-11-02T01:48:54.826Z,8.05555555556
2018-11-02T01:49:07.135Z,8.05555555556
2018-11-02T01:49:19.392Z,8.05555555556
2018-11-02T01:49:31.659Z,8.05555555556
2018-11-02T01:49:44.936Z,8.05555555556
2018-11-02T01:49:57.231Z,8.05555555556
2018-11-02T01:50:09.527Z,8.05555555556
2018-11-02T01:50:21.739Z,8.05555555556
2018-11-02T01:50:33.941Z,8.11111111111
2018-11-02T01:50:46.678Z,8.05555555556
2018-11-02T01:50:59.258Z,8.05555555556
2018-11-02T01:51:11.556Z,8.05555555556
2018-11-02T01:51:23.789Z,8.05555555556
2018-11-02T01:51:36.083Z,8.05555555556
2018-11-02T01:51:48.350Z,8.05555555556
2018-11-02T01:52:01.485Z,8.05555555556
2018-11-02T01:52:13.712Z,8.05555555556
2018-11-02T01:52:25.985Z,8.11111111111
2018-11-02T01:52:38.285Z,8.11111111111
2018-11-02T01:52:50.839Z,8.05555555556
2018-11-02T01:53:03.854Z,8.05555555556
2018-11-02T01:53:16.178Z,8.05555555556
2018-11-02T01:53:28.560Z,8.11111111111
2018-11-02T01:53:40.893Z,8.11111111111
2018-11-02T01:53:53.191Z,8.11111111111
2018-11-02T01:54:06.151Z,8.05555555556
2018-11-02T01:54:18.725Z,8.11111111111
2018-11-02T01:54:30.945Z,8.11111111111
2018-11-02T01:54:43.208Z,8.11111111111
2018-11-02T01:54:55.398Z,8.11111111111
2018-11-02T01:55:07.729Z,8.11111111111
2018-11-02T01:55:20.792Z,8.05555555556
2018-11-02T01:55:33.005Z,8.05555555556
2018-11-02T01:55:45.218Z,8.05555555556
2018-11-02T01:55:57.430Z,8.11111111111
2018-11-02T01:56:09.643Z,8.11111111111
2018-11-02T01:56:22.789Z,8.11111111111
2018-11-02T01:56:35.048Z,8.11111111111
2018-11-02T01:56:47.378Z,8.11111111111
2018-11-02T01:56:59.634Z,8.11111111111
2018-11-02T01:57:11.851Z,8.11111111111
2018-11-02T01:57:24.215Z,8.11111111111
2018-11-02T01:57:37.039Z,8.11111111111
2018-11-02T01:57:49.283Z,8.11111111111
2018-11-02T01:58:01.529Z,8.05555555556
2018-11-02T01:58:13.873Z,8.05555555556
2018-11-02T01:58:26.076Z,8.05555555556
2018-11-02T01:58:39.146Z,8.11111111111
2018-11-02T01:58:51.373Z,8.11111111111
2018-11-02T01:59:03.620Z,8.11111111111
2018-11-02T01:59:15.874Z,8.11111111111
2018-11-02T01:59:28.105Z,8.11111111111
2018-11-02T01:59:41.013Z,8.05555555556
2018-11-02T01:59:53.393Z,8.11111111111
2018-11-02T02:00:05.664Z,8.11111111111
2018-11-02T02:00:17.929Z,8.11111111111
2018-11-02T02:00:30.369Z,8.05555555556
2018-11-02T02:00:42.918Z,8.05555555556
2018-11-02T02:00:55.730Z,8.11111111111
2018-11-02T02:01:07.962Z,8.11111111111
2018-11-02T02:01:20.173Z,8.11111111111
2018-11-02T02:01:32.443Z,8.05555555556
2018-11-02T02:01:44.785Z,8.11111111111
2018-11-02T02:01:57.904Z,8.05555555556
2018-11-02T02:02:10.165Z,8.05555555556
2018-11-02T02:02:22.450Z,8.05555555556
2018-11-02T02:02:34.658Z,8.11111111111
2018-11-02T02:02:46.858Z,8.11111111111
2018-11-02T02:03:00.090Z,8.05555555556
2018-11-02T02:03:12.347Z,8.11111111111
2018-11-02T02:03:24.607Z,8.05555555556
2018-11-02T02:03:36.808Z,8.05555555556
2018-11-02T02:03:49.023Z,8.05555555556
2018-11-02T02:04:01.262Z,8.05555555556
2018-11-02T02:04:14.524Z,8.05555555556
2018-11-02T02:04:26.796Z,8.05555555556
2018-11-02T02:04:39.192Z,8.05555555556
2018-11-02T02:04:51.457Z,8.05555555556
2018-11-02T02:05:03.690Z,8.05555555556
2018-11-02T02:05:16.731Z,8.05555555556
2018-11-02T02:05:28.964Z,8.05555555556
2018-11-02T02:05:41.171Z,8.05555555556
2018-11-02T02:05:53.374Z,8.05555555556
2018-11-02T02:06:05.761Z,8.05555555556
2018-11-02T02:06:18.576Z,8.05555555556
2018-11-02T02:06:30.826Z,8.05555555556
2018-11-02T02:06:43.128Z,8.05555555556
2018-11-02T02:06:55.508Z,8.05555555556
2018-11-02T02:07:07.711Z,8.05555555556
2018-11-02T02:07:19.910Z,8.05555555556
2018-11-02T02:07:33.008Z,8.05555555556
2018-11-02T02:07:45.251Z,8.05555555556
2018-11-02T02:07:57.492Z,8.05555555556
2018-11-02T02:08:09.758Z,8.05555555556
2018-11-02T02:08:21.962Z,8.05555555556
2018-11-02T02:08:35.016Z,8.05555555556
2018-11-02T02:08:47.214Z,8.05555555556
2018-11-02T02:08:59.463Z,8.05555555556
2018-11-02T02:09:11.658Z,8
2018-11-02T02:09:23.912Z,8.05555555556
2018-11-02T02:09:36.712Z,8.05555555556
2018-11-02T02:09:48.925Z,8
2018-11-02T02:10:01.359Z,8.05555555556
2018-11-02T02:10:13.590Z,8
2018-11-02T02:10:25.851Z,8.05555555556
2018-11-02T02:10:38.072Z,8
2018-11-02T02:10:51.099Z,8
2018-11-02T02:11:03.339Z,8
2018-11-02T02:11:15.624Z,8
2018-11-02T02:11:27.869Z,8
2018-11-02T02:11:40.091Z,8
2018-11-02T02:11:52.973Z,8.05555555556
2018-11-02T02:12:05.273Z,8
2018-11-02T02:12:17.497Z,8
2018-11-02T02:12:29.893Z,8